Cody Simons

Olheiro - Willem II
20 Fev 2028
Domingo
Processo

Personalidade

Adaptabilidade (2) Ambição (1) Controvérsia (10) Lealdade (9) Pressão (15) Profissionalismo (7) Espírito Esportivo (10) Temperamento (15)

Perfil

Estilo de Treinamento Democrático
Licença Continental A
Determinação 7
Gestão de Pessoas 7
Motivação 10
Disciplina 7
Satisfação no Trabalho
100%
Fadiga
0%
Função Olheiro
Salário 60.0K p/s
Contrato 14.03.2030

Desempenho

Comportamento Bom
Eficácia do Treinamento
35%
Desenvolvimento do Jogador
45%
Prevenção de Lesões
30%
Implementação Tática
45%

Eventos Recentes

Participou de uma reunião de recrutamento 7d atrás
Recomendou um alvo de transferência 7d atrás
Participou de uma reunião de recrutamento 14d atrás
Recomendou um alvo de transferência 14d atrás
Participou de uma reunião de recrutamento 21d atrás
Recomendou um alvo de transferência 21d atrás
Participando de desenvolvimento profissional 28d atrás
Participando de desenvolvimento profissional 28d atrás

Monitorando agora

72
Jogador Clube Status Habilidade Confiança Observado Última observação Último voto
Mao Hosoya Everton Ativo 134 / 135 67% 1 01.01.2028 Aprovar
Santiago Hezze Chaves Negociando 132 / 133 62% 1 01.01.2028 -
Noah Nartey Olympique Lyonnais Ativo 125 / 144 40% 1 05.07.2027 -
Latrell Aken Groningen Ativo 97 / 108 40% 1 05.07.2027 -
Dion Beljo Standard Liege Negociando 131 / 132 66% 1 01.06.2027 Aprovar
Jefry Zapata Danubio Negociando 118 / 118 67% 1 01.06.2027 Aprovar
Tshepang Moremi Orlando Pirates Ativo 116 / 128 40% 2 30.05.2027 -
Tom Fellows Southampton Ativo 142 / 138 40% 2 28.05.2027 -
Jack McGlynn Stoke City Ativo 120 / 130 40% 1 28.05.2027 -
Adrià Altimira Deportivo La Coruña Ativo 136 / 123 40% 1 27.05.2027 -
Víctor Mollejo Burgos Ativo 131 / 113 40% 1 27.05.2027 -
Jonathan Dubasin Osasuna Ativo 140 / 140 40% 2 26.05.2027 -
Andrés Martín Racing Santander Ativo 149 / 137 40% 5 26.05.2027 -
Welington Southampton Ativo 125 / 125 40% 2 23.05.2027 -
Jason Knight Bristol City Ativo 117 / 136 40% 1 23.05.2027 -
Gaspar Gijón Ativo 137 / 133 40% 4 21.05.2027 -
Bryan Gil Girona Ativo 149 / 140 40% 2 21.05.2027 -
Couhaib Driouech Celta Ativo 147 / 128 40% 2 20.05.2027 -
Scott Twine Bristol City Ativo 136 / 128 40% 1 18.05.2027 -
Kasey McAteer Ipswich Town Ativo 140 / 126 40% 1 18.05.2027 -
David Larrubia Málaga Ativo 124 / 124 40% 1 14.05.2027 -
Daniel Kyerewaa Reading Ativo 123 / 123 40% 1 14.05.2027 -
Derensili Sanches Fernandes Huddersfield Town Ativo 131 / 131 40% 5 12.05.2027 -
Kwadwo Baah Watford Ativo 123 / 120 40% 1 12.05.2027 -
Mario Soriano Deportivo La Coruña Ativo 124 / 138 40% 3 11.05.2027 -
Romano Schmid Frosinone Ativo 144 / 146 40% 1 10.05.2027 -
Omar El Hilali Espanyol Ativo 143 / 149 40% 2 05.05.2027 -
Ilyas Ansah Hull City Ativo 124 / 123 40% 1 05.05.2027 -
Thibaud Verlinden OH Leuven Ativo 126 / 121 40% 1 04.05.2027 -
David Turnbull Cardiff City Ativo 115 / 119 40% 1 02.05.2027 -
Tyrhys Dolan Espanyol Ativo 131 / 130 40% 3 24.04.2027 -
Amine Adli Bournemouth Ativo 154 / 139 40% 1 24.04.2027 -
Erick Sánchez OGC Nice Ativo 134 / 139 40% 2 22.04.2027 -
Pol Lozano Espanyol Ativo 132 / 133 40% 2 20.04.2027 -
Giacomo Raspadori Atalanta Ativo 151 / 141 40% 1 20.04.2027 -
Chris Lokesa Waasland-Beveren Ativo 116 / 127 40% 3 18.04.2027 -
Nayel Mehssatou KV Kortrijk Ativo 117 / 121 40% 1 18.04.2027 -
Javi Martínez Eibar Ativo 120 / 123 40% 1 17.04.2027 -
Jack Rudoni Coventry City Ativo 128 / 125 40% 3 14.04.2027 -
Daan Heymans Racing Genk Ativo 139 / 136 40% 2 13.04.2027 -
Bart van Rooij Twente Ativo 151 / 134 40% 1 13.04.2027 -
Aimé Omgba KAA Gent Ativo 117 / 132 40% 1 12.04.2027 -
Maksim Kireev KV Mechelen Ativo 128 / 134 40% 1 10.04.2027 -
Finn Azaz Southampton Ativo 141 / 138 40% 1 09.04.2027 -
Raúl Moro Osasuna Ativo 128 / 134 40% 1 07.04.2027 -
Othmane Maamma Watford Ativo 112 / 122 40% 1 06.04.2027 -
Jakob Napoleon Romsaas Charleroi Ativo 119 / 124 40% 1 05.04.2027 -
Hugo Álvarez Celta Ativo 141 / 141 40% 1 29.03.2027 -
Joaquín Panichelli Le Havre AC Ativo 140 / 144 40% 1 29.03.2027 -
Ilyes Najim Waasland-Beveren Ativo 103 / 117 40% 1 28.03.2027 -
Carlos Vicente Birmingham Ativo 135 / 135 40% 1 26.03.2027 -
Abdelkahar Kadri KAA Gent Ativo 126 / 137 40% 1 24.03.2027 -
Kevin Fulham Ativo 152 / 150 40% 1 24.03.2027 -
Germán Valera Elche Ativo 129 / 145 40% 1 23.03.2027 -
Mathias Delorge KAA Gent Ativo 124 / 123 40% 1 22.12.2026 -
Ibrahim Karamoko Standard Liege Ativo 130 / 126 40% 1 22.12.2026 -
Aiham Ousou Charleroi Ativo 132 / 127 40% 2 15.12.2026 -
Manu Morlanes Mallorca Ativo 144 / 140 40% 1 15.12.2026 -
Kevin Amaro Racing Genk Ativo 113 / 129 40% 1 13.12.2026 -
Nikolas Sattlberger Racing Genk Ativo 116 / 133 40% 2 11.12.2026 -
Mardochée Nzita Charleroi Ativo 117 / 109 40% 1 07.12.2026 -
Adrien Truffert Bournemouth Ativo 149 / 144 40% 1 02.12.2026 -
José Marsà KV Mechelen Ativo 126 / 131 40% 1 02.12.2026 -
Yaimar Medina Racing Genk Ativo 130 / 112 40% 1 01.12.2026 -
Shea Charles Southampton Ativo 140 / 146 40% 1 01.12.2026 -
Léandre Kuavita Waasland-Beveren Ativo 126 / 116 40% 2 28.11.2026 -
Łukasz Łakomy OH Leuven Ativo 116 / 114 40% 1 28.11.2026 -
Dara O'Shea Ipswich Town Ativo 122 / 145 40% 1 25.11.2026 -
Tyler Adams Bournemouth Ativo 144 / 159 40% 1 24.11.2026 -
Leo Fuhr Hjelde KV Mechelen Ativo 128 / 113 40% 1 21.11.2026 -
Christian Krasnodar Ativo 147 / 119 40% 2 20.11.2026 -
Taiga Hata Sint-Truiden Ativo 118 / 116 40% 1 06.11.2026 -